Time;durP1;ratioP1;P1;durP2;ratioP2;P2;SDS_P1;SDS_P2;PMS_P1;PMS_P2;Temp;Humidity;BMP_temperature;BMP_pressure;BME280_temperature;BME280_humidity;BME280_pressure;Samples;Min_cycle;Max_cycle;Signal;HPM_P1;HPM_P2
2022/11/28 00:00:56;;;;;;;8.48;4.93;;;11.00;53.20;;;;;;5021604;28;20053;-56
2022/11/28 00:03:23;;;;;;;9.15;5.35;;;11.00;53.10;;;;;;5026952;28;20057;-53
2022/11/28 00:05:51;;;;;;;8.10;5.35;;;11.00;53.20;;;;;;5029153;28;20057;-56
2022/11/28 00:08:18;;;;;;;8.30;5.05;;;11.00;53.10;;;;;;5022773;28;20052;-55
2022/11/28 00:10:45;;;;;;;10.15;5.65;;;11.00;53.10;;;;;;5032002;28;20064;-55
2022/11/28 00:13:14;;;;;;;8.65;5.18;;;11.00;53.10;;;;;;5027734;28;20064;-55
2022/11/28 00:15:41;;;;;;;7.25;4.72;;;11.00;53.00;;;;;;5018696;28;20413;-56
2022/11/28 00:18:09;;;;;;;8.65;5.18;;;11.00;53.00;;;;;;5025688;28;20057;-54
2022/11/28 00:20:36;;;;;;;8.85;5.43;;;11.00;53.00;;;;;;5017449;28;20998;-55
2022/11/28 00:23:03;;;;;;;9.90;5.32;;;11.00;53.00;;;;;;5024518;28;20053;-56
2022/11/28 00:25:31;;;;;;;8.00;4.80;;;11.00;53.10;;;;;;5030707;28;20060;-56
2022/11/28 00:27:58;;;;;;;9.05;4.53;;;11.00;53.20;;;;;;5022926;28;20048;-56
2022/11/28 00:30:27;;;;;;;10.95;5.22;;;11.00;53.70;;;;;;5028299;28;20053;-56
2022/11/28 00:32:54;;;;;;;8.55;5.10;;;11.10;53.40;;;;;;5031723;28;20049;-56
2022/11/28 00:35:21;;;;;;;10.30;5.00;;;11.10;53.40;;;;;;5024219;28;20053;-55
2022/11/28 00:37:48;;;;;;;8.35;4.88;;;11.00;53.40;;;;;;5037120;28;20052;-56
2022/11/28 00:40:16;;;;;;;10.25;4.88;;;11.10;53.50;;;;;;5032601;28;20049;-56
2022/11/28 00:42:43;;;;;;;5.57;3.88;;;11.00;53.50;;;;;;5032183;28;20060;-56
2022/11/28 00:45:10;;;;;;;8.55;4.97;;;11.10;53.60;;;;;;5022214;28;20574;-53
2022/11/28 00:47:39;;;;;;;8.05;4.75;;;11.10;53.70;;;;;;5019157;28;20065;-54
2022/11/28 00:50:07;;;;;;;7.65;5.07;;;11.10;53.70;;;;;;5023380;28;20053;-55
2022/11/28 00:52:34;;;;;;;9.93;5.50;;;11.10;53.80;;;;;;5025669;28;20061;-55
2022/11/28 00:55:02;;;;;;;5.95;4.55;;;11.10;53.80;;;;;;5029166;28;20079;-55
2022/11/28 00:57:29;;;;;;;7.90;5.38;;;11.10;53.80;;;;;;5025155;28;20056;-56
2022/11/28 00:59:56;;;;;;;8.50;5.07;;;11.10;53.90;;;;;;5018722;28;20069;-56
2022/11/28 01:02:23;;;;;;;8.60;5.30;;;11.10;53.90;;;;;;5036164;28;20060;-56
2022/11/28 01:04:52;;;;;;;12.05;6.00;;;11.10;53.90;;;;;;5017283;28;20515;-55
2022/11/28 01:07:19;;;;;;;9.55;5.65;;;11.00;53.90;;;;;;5034307;28;20128;-55
2022/11/28 01:09:46;;;;;;;9.93;5.32;;;11.00;54.00;;;;;;5029757;28;20049;-56
2022/11/28 01:12:14;;;;;;;9.88;5.82;;;11.00;54.00;;;;;;5010710;28;20406;-56
2022/11/28 01:14:41;;;;;;;8.15;4.97;;;11.00;54.10;;;;;;5028974;28;20523;-56
2022/11/28 01:17:08;;;;;;;9.35;5.80;;;11.00;54.20;;;;;;5023927;28;20049;-56
2022/11/28 01:19:35;;;;;;;10.80;6.40;;;11.00;54.20;;;;;;5029317;28;20061;-56
2022/11/28 01:22:05;;;;;;;9.00;5.72;;;11.00;54.30;;;;;;5022473;28;20061;-56
2022/11/28 01:24:32;;;;;;;8.70;5.55;;;11.00;54.40;;;;;;5025595;28;20064;-56
2022/11/28 01:26:59;;;;;;;8.10;5.43;;;11.00;54.40;;;;;;5028637;28;20433;-55
2022/11/28 01:29:26;;;;;;;9.85;5.70;;;10.90;54.50;;;;;;5030405;28;20060;-56
2022/11/28 01:31:54;;;;;;;8.77;5.60;;;11.00;54.60;;;;;;5036913;28;20057;-56
2022/11/28 01:34:21;;;;;;;9.57;5.45;;;10.90;54.60;;;;;;5031410;28;20405;-55
2022/11/28 01:36:48;;;;;;;9.07;5.60;;;10.90;54.60;;;;;;5040536;28;20053;-55
2022/11/28 01:39:17;;;;;;;11.40;5.78;;;10.90;54.60;;;;;;5031051;28;20049;-55
2022/11/28 01:41:44;;;;;;;8.77;5.20;;;10.90;54.70;;;;;;5032065;28;20056;-52
2022/11/28 01:44:44;;;;;;;9.38;5.50;;;10.90;54.70;;;;;;5025301;28;20061;-56
2022/11/28 01:47:11;;;;;;;9.60;5.57;;;10.90;54.80;;;;;;5030423;28;20048;-50
2022/11/28 01:49:39;;;;;;;12.95;5.95;;;10.90;54.70;;;;;;5033065;28;20494;-55
2022/11/28 01:52:11;;;;;;;8.55;5.40;;;10.90;54.70;;;;;;5021901;28;20052;-55
2022/11/28 01:54:42;;;;;;;8.38;4.97;;;10.90;54.80;;;;;;5041802;28;20057;-50
2022/11/28 01:57:13;;;;;;;10.40;5.63;;;10.90;54.80;;;;;;5025219;28;20052;-55
2022/11/28 01:59:46;;;;;;;9.65;5.30;;;10.90;54.80;;;;;;5025297;28;20497;-57
2022/11/28 02:02:17;;;;;;;10.27;5.40;;;10.90;54.90;;;;;;5033587;28;20056;-56
2022/11/28 02:04:46;;;;;;;10.75;5.80;;;10.90;55.00;;;;;;5036130;28;20053;-57
2022/11/28 02:07:13;;;;;;;8.32;4.95;;;10.90;55.00;;;;;;5035963;28;20060;-54
2022/11/28 02:09:42;;;;;;;14.00;6.68;;;10.80;55.00;;;;;;5039417;28;20409;-55
2022/11/28 02:12:26;;;;;;;11.25;6.15;;;10.80;55.10;;;;;;5022459;28;20061;-55
2022/11/28 02:15:17;;;;;;;12.00;5.63;;;10.80;55.20;;;;;;5036800;28;20533;-54
2022/11/28 02:17:59;;;;;;;7.78;5.65;;;10.80;55.30;;;;;;5044117;28;20131;-56
2022/11/28 02:20:56;;;;;;;9.48;5.53;;;10.80;55.30;;;;;;5022105;28;20064;-55
2022/11/28 02:23:30;;;;;;;9.68;5.68;;;10.80;55.50;;;;;;5030494;28;20405;-55
2022/11/28 02:26:27;;;;;;;9.43;5.18;;;10.70;55.40;;;;;;5033192;28;20049;-56
2022/11/28 02:29:25;;;;;;;12.68;6.10;;;10.70;55.60;;;;;;5028934;28;20052;-56
2022/11/28 02:32:13;;;;;;;8.88;5.60;;;10.70;55.60;;;;;;5038298;28;20060;-50
2022/11/28 02:34:49;;;;;;;9.85;5.72;;;10.70;55.60;;;;;;5037725;28;20083;-54
2022/11/28 02:37:22;;;;;;;7.30;5.30;;;10.70;55.60;;;;;;5030323;28;20387;-56
2022/11/28 02:40:00;;;;;;;9.48;5.60;;;10.70;55.60;;;;;;5014446;28;20064;-56
2022/11/28 02:42:36;;;;;;;10.05;5.60;;;10.60;55.60;;;;;;5024048;28;20057;-54
2022/11/28 02:45:10;;;;;;;8.30;4.95;;;10.60;55.80;;;;;;5031943;28;20067;-54
2022/11/28 02:47:44;;;;;;;9.35;5.15;;;10.60;55.90;;;;;;5030570;28;20071;-52
2022/11/28 02:50:15;;;;;;;10.70;5.10;;;10.60;55.90;;;;;;5040614;28;20084;-53
2022/11/28 02:52:46;;;;;;;11.50;6.28;;;10.60;55.80;;;;;;5037750;28;20503;-52
2022/11/28 02:55:15;;;;;;;13.15;6.15;;;10.60;55.90;;;;;;5029438;28;20516;-55
2022/11/28 02:57:46;;;;;;;10.35;5.88;;;10.60;56.00;;;;;;5020720;28;20053;-51
2022/11/28 03:00:32;;;;;;;9.40;5.82;;;10.60;56.10;;;;;;5033009;28;20060;-55
2022/11/28 03:03:26;;;;;;;7.85;5.15;;;10.50;56.10;;;;;;5038837;28;20488;-56
2022/11/28 03:05:59;;;;;;;8.32;5.13;;;10.50;56.00;;;;;;5036323;28;20060;-56
2022/11/28 03:08:42;;;;;;;11.02;6.28;;;10.50;56.00;;;;;;5032999;28;20049;-56
2022/11/28 03:11:15;;;;;;;10.48;6.07;;;10.50;56.00;;;;;;5030999;28;20061;-55
2022/11/28 03:13:52;;;;;;;10.32;5.90;;;10.50;56.00;;;;;;5033569;28;20993;-55
2022/11/28 03:16:27;;;;;;;9.23;5.00;;;10.50;56.10;;;;;;5032604;28;20048;-56
2022/11/28 03:19:04;;;;;;;9.98;5.53;;;10.50;56.20;;;;;;5036245;28;20057;-55
2022/11/28 03:21:39;;;;;;;8.57;5.63;;;10.50;56.20;;;;;;5024410;28;20061;-55
2022/11/28 03:24:12;;;;;;;10.55;5.60;;;10.50;56.30;;;;;;5029058;28;20049;-55
2022/11/28 03:26:47;;;;;;;15.82;6.05;;;10.50;56.30;;;;;;5038042;28;20511;-56
2022/11/28 03:29:16;;;;;;;;;;;10.50;56.30;;;;;;5029479;28;20048;-50
2022/11/28 03:31:49;;;;;;;8.98;5.45;;;10.50;56.30;;;;;;5029747;28;19925;-56
2022/11/28 03:34:21;;;;;;;7.22;5.15;;;10.50;56.20;;;;;;5039849;28;20057;-53
2022/11/28 03:36:52;;;;;;;9.23;5.43;;;10.50;56.20;;;;;;5035197;28;20053;-56
2022/11/28 03:39:22;;;;;;;8.20;6.00;;;10.50;56.20;;;;;;5037986;28;20057;-56
2022/11/28 03:41:54;;;;;;;7.90;5.20;;;10.50;56.30;;;;;;5018263;28;20064;-56
2022/11/28 03:44:25;;;;;;;10.10;5.32;;;10.50;56.30;;;;;;5034274;28;20049;-55
2022/11/28 03:46:55;;;;;;;7.18;4.97;;;10.50;56.30;;;;;;5025510;28;20049;-55
2022/11/28 03:49:28;;;;;;;7.97;4.72;;;10.40;56.30;;;;;;5034192;28;20389;-56
2022/11/28 03:51:59;;;;;;;9.98;5.93;;;10.40;56.40;;;;;;5028165;28;20421;-53
2022/11/28 03:54:33;;;;;;;8.55;5.60;;;10.40;56.40;;;;;;5017955;28;20509;-46
2022/11/28 03:57:08;;;;;;;7.25;5.07;;;10.40;56.40;;;;;;5017196;28;20049;-45
2022/11/28 03:59:37;;;;;;;8.55;5.20;;;10.40;56.50;;;;;;5025354;28;21276;-45
2022/11/28 04:02:13;;;;;;;9.27;5.10;;;10.40;56.50;;;;;;5025672;28;20053;-45
2022/11/28 04:04:51;;;;;;;9.25;5.35;;;10.50;56.50;;;;;;5025623;28;20045;-46
2022/11/28 04:07:26;;;;;;;7.32;5.07;;;10.40;56.50;;;;;;5028641;28;20053;-45
2022/11/28 04:10:01;;;;;;;8.02;5.35;;;10.40;56.40;;;;;;5023761;28;20050;-46
2022/11/28 04:12:37;;;;;;;12.13;5.78;;;10.50;56.50;;;;;;5017530;28;20053;-41
2022/11/28 04:15:10;;;;;;;8.32;5.50;;;10.50;56.50;;;;;;5023469;28;20060;-42
2022/11/28 04:17:45;;;;;;;7.90;5.38;;;10.40;56.40;;;;;;5025737;28;20052;-43
2022/11/28 04:20:19;;;;;;;9.50;6.03;;;10.50;56.40;;;;;;5022643;28;20413;-46
2022/11/28 04:22:53;;;;;;;9.50;6.20;;;10.50;56.40;;;;;;5021150;28;20556;-46
2022/11/28 04:25:22;;;;;;;;;;;10.50;56.30;;;;;;5020759;28;20361;-44
2022/11/28 04:27:54;;;;;;;8.43;5.55;;;10.50;56.30;;;;;;5025330;28;19928;-44
2022/11/28 04:30:22;;;;;;;10.07;5.68;;;10.50;56.10;;;;;;5036773;28;20512;-47
2022/11/28 04:32:51;;;;;;;9.38;5.68;;;10.50;56.10;;;;;;5034224;28;20049;-45
2022/11/28 04:35:25;;;;;;;9.50;5.93;;;10.50;56.10;;;;;;5035349;28;20048;-46
2022/11/28 04:37:54;;;;;;;9.55;6.38;;;10.50;56.10;;;;;;5027746;28;20049;-45
2022/11/28 04:40:25;;;;;;;8.63;5.85;;;10.50;56.10;;;;;;5035497;28;20060;-43
2022/11/28 04:42:56;;;;;;;13.63;6.40;;;10.50;56.00;;;;;;5036648;28;20568;-46
2022/11/28 04:45:29;;;;;;;10.82;6.45;;;10.40;56.00;;;;;;5034844;28;20060;-44
2022/11/28 04:47:57;;;;;;;9.43;6.70;;;10.40;56.00;;;;;;5036281;28;20523;-43
2022/11/28 04:50:31;;;;;;;9.57;6.88;;;10.40;56.00;;;;;;5033796;28;20050;-47
2022/11/28 04:53:03;;;;;;;10.50;6.70;;;10.40;56.00;;;;;;5037858;28;20056;-43
2022/11/28 04:55:35;;;;;;;10.77;6.75;;;10.40;56.00;;;;;;5022274;28;20053;-50
2022/11/28 04:58:08;;;;;;;12.27;6.03;;;10.40;56.00;;;;;;5033762;28;20049;-42
2022/11/28 05:00:37;;;;;;;10.85;6.53;;;10.40;56.00;;;;;;5028464;28;20053;-43
2022/11/28 05:03:05;;;;;;;10.90;7.10;;;10.40;55.90;;;;;;5018692;28;20080;-46
2022/11/28 05:05:43;;;;;;;10.90;6.60;;;10.40;55.90;;;;;;5029147;28;20505;-47
2022/11/28 05:08:10;;;;;;;8.80;5.95;;;10.40;55.90;;;;;;5018835;28;20057;-43
2022/11/28 05:10:37;;;;;;;11.13;6.07;;;10.40;55.90;;;;;;5027414;28;20489;-47
2022/11/28 05:13:05;;;;;;;13.07;6.78;;;10.40;55.80;;;;;;5022316;28;20057;-47
2022/11/28 05:15:32;;;;;;;8.80;5.85;;;10.40;55.90;;;;;;5034291;28;20405;-49
2022/11/28 05:17:59;;;;;;;11.48;7.30;;;10.40;55.80;;;;;;5019544;28;20597;-46
2022/11/28 05:20:27;;;;;;;11.10;6.28;;;10.40;55.90;;;;;;5022446;28;20417;-44
2022/11/28 05:22:55;;;;;;;12.43;6.60;;;10.40;55.90;;;;;;5020723;28;20061;-43
2022/11/28 05:25:23;;;;;;;12.13;6.50;;;10.30;55.80;;;;;;5022380;28;20049;-49
2022/11/28 05:27:50;;;;;;;11.15;6.50;;;10.30;55.80;;;;;;5026655;28;20049;-46
2022/11/28 05:30:18;;;;;;;9.30;6.53;;;10.30;55.80;;;;;;5034071;28;20057;-47
2022/11/28 05:32:45;;;;;;;10.27;6.53;;;10.30;55.90;;;;;;5031752;28;20519;-45
2022/11/28 05:35:12;;;;;;;28.88;15.63;;;10.30;55.80;;;;;;5025949;28;20049;-48
2022/11/28 05:37:40;;;;;;;86.10;38.65;;;10.30;55.90;;;;;;5026520;28;20524;-44
2022/11/28 05:40:09;;;;;;;45.92;23.73;;;10.30;55.90;;;;;;5023448;28;20049;-45
2022/11/28 05:42:37;;;;;;;21.08;11.30;;;10.30;55.90;;;;;;5015009;28;20060;-46
2022/11/28 05:45:05;;;;;;;16.65;8.50;;;10.30;55.90;;;;;;5013020;28;20489;-51
2022/11/28 05:47:33;;;;;;;10.07;6.57;;;10.30;55.90;;;;;;5022006;28;20576;-43
2022/11/28 05:50:00;;;;;;;11.20;7.03;;;10.30;55.90;;;;;;5035010;28;20053;-42
2022/11/28 05:52:31;;;;;;;12.80;6.85;;;10.30;55.90;;;;;;5029790;28;20513;-45
2022/11/28 05:55:00;;;;;;;9.30;6.20;;;10.30;55.90;;;;;;5031806;28;20059;-43
2022/11/28 05:57:30;;;;;;;10.73;5.90;;;10.30;55.90;;;;;;5034979;28;20065;-43
2022/11/28 05:59:58;;;;;;;9.82;6.32;;;10.30;55.80;;;;;;5036278;28;20053;-44
2022/11/28 06:02:25;;;;;;;15.38;8.80;;;10.30;55.80;;;;;;5022117;28;20054;-48
2022/11/28 06:04:52;;;;;;;45.55;22.95;;;10.30;55.80;;;;;;5021591;28;20053;-51
2022/11/28 06:07:19;;;;;;;21.58;12.60;;;10.30;55.80;;;;;;5018549;28;20075;-46
2022/11/28 06:09:47;;;;;;;15.57;8.43;;;10.30;55.80;;;;;;5023381;28;20046;-43
2022/11/28 06:12:14;;;;;;;13.60;7.05;;;10.20;55.90;;;;;;5021687;28;20045;-46
2022/11/28 06:14:42;;;;;;;11.40;7.07;;;10.20;55.90;;;;;;5022386;28;20073;-44
2022/11/28 06:17:10;;;;;;;8.75;6.03;;;10.20;55.90;;;;;;5014299;28;20490;-45
2022/11/28 06:19:37;;;;;;;9.45;5.55;;;10.20;55.90;;;;;;5024792;28;20131;-43
2022/11/28 06:22:04;;;;;;;15.82;6.47;;;10.20;55.90;;;;;;5019962;28;20516;-45
2022/11/28 06:24:32;;;;;;;10.20;6.43;;;10.20;56.00;;;;;;5028336;28;20061;-43
2022/11/28 06:26:59;;;;;;;8.68;5.80;;;10.20;56.00;;;;;;5026145;28;20049;-46
2022/11/28 06:29:26;;;;;;;65.38;29.65;;;10.20;56.10;;;;;;5011479;28;20053;-45
2022/11/28 06:31:55;;;;;;;32.13;16.00;;;10.20;56.10;;;;;;5014810;28;20060;-45
2022/11/28 06:34:23;;;;;;;15.00;8.90;;;10.20;56.20;;;;;;5022477;28;20053;-45
2022/11/28 06:36:50;;;;;;;12.68;6.47;;;10.20;56.10;;;;;;5035950;28;20059;-41
2022/11/28 06:39:17;;;;;;;9.50;5.55;;;10.20;56.20;;;;;;5033177;28;20061;-45
2022/11/28 06:41:45;;;;;;;12.48;5.82;;;10.20;56.10;;;;;;5016479;28;20064;-50
2022/11/28 06:44:13;;;;;;;10.77;6.07;;;10.20;56.20;;;;;;5019722;28;20068;-44
2022/11/28 06:46:41;;;;;;;9.93;6.55;;;10.20;56.20;;;;;;5026871;28;20060;-42
2022/11/28 06:49:11;;;;;;;10.93;5.90;;;10.20;56.20;;;;;;5024967;28;20046;-44
2022/11/28 06:51:39;;;;;;;7.78;5.25;;;10.20;56.30;;;;;;5022927;28;20065;-45
2022/11/28 06:54:06;;;;;;;9.23;6.30;;;10.20;56.20;;;;;;5036241;28;20531;-46
2022/11/28 06:56:34;;;;;;;13.30;7.32;;;10.20;56.30;;;;;;5043682;28;20400;-43
2022/11/28 06:59:01;;;;;;;13.02;5.97;;;10.20;56.30;;;;;;5036916;28;20052;-42
2022/11/28 07:01:31;;;;;;;9.75;6.30;;;10.20;56.30;;;;;;5032946;28;20053;-43
2022/11/28 07:03:58;;;;;;;12.10;6.50;;;10.20;56.40;;;;;;5037242;28;20060;-45
2022/11/28 07:06:28;;;;;;;9.30;5.95;;;10.10;56.30;;;;;;5031761;28;20064;-49
2022/11/28 07:08:56;;;;;;;9.98;6.30;;;10.10;56.30;;;;;;5031000;28;20049;-43
2022/11/28 07:11:26;;;;;;;11.35;6.90;;;10.10;56.30;;;;;;5033332;28;20405;-46
2022/11/28 07:13:55;;;;;;;9.80;6.18;;;10.10;56.30;;;;;;5023026;28;20057;-46
2022/11/28 07:16:25;;;;;;;12.02;6.05;;;10.10;56.40;;;;;;5044130;28;20064;-43
2022/11/28 07:18:53;;;;;;;9.23;5.82;;;10.10;56.40;;;;;;5033328;28;20564;-43
2022/11/28 07:21:21;;;;;;;9.85;6.03;;;10.10;56.40;;;;;;5038576;28;20048;-44
2022/11/28 07:23:50;;;;;;;9.77;5.57;;;10.10;56.40;;;;;;5023601;28;20494;-47
2022/11/28 07:26:20;;;;;;;9.23;6.15;;;10.10;56.40;;;;;;5028129;28;20045;-45
2022/11/28 07:28:48;;;;;;;8.32;5.85;;;10.10;56.50;;;;;;5030891;28;20060;-49
2022/11/28 07:31:18;;;;;;;9.60;5.90;;;10.10;56.50;;;;;;5019685;28;20049;-46
2022/11/28 07:33:47;;;;;;;9.00;6.20;;;10.10;56.50;;;;;;5024252;28;20056;-47
2022/11/28 07:36:16;;;;;;;10.02;6.50;;;10.10;56.50;;;;;;5028668;28;20596;-45
2022/11/28 07:38:46;;;;;;;9.32;5.90;;;10.10;56.50;;;;;;5025738;28;20068;-42
2022/11/28 07:41:15;;;;;;;11.10;6.40;;;10.10;56.50;;;;;;5018753;28;20057;-45
2022/11/28 07:43:44;;;;;;;10.05;5.38;;;10.10;56.50;;;;;;5023700;28;20057;-47
2022/11/28 07:46:14;;;;;;;11.75;6.78;;;10.00;56.50;;;;;;5027712;28;20064;-41
2022/11/28 07:48:41;;;;;;;11.55;6.47;;;10.00;56.50;;;;;;5017384;28;20064;-44
2022/11/28 07:51:10;;;;;;;7.30;5.28;;;10.10;56.60;;;;;;5022970;28;20075;-42
2022/11/28 07:53:38;;;;;;;9.82;6.55;;;10.00;56.50;;;;;;5030737;28;20057;-43
2022/11/28 07:56:08;;;;;;;8.48;5.60;;;10.00;56.60;;;;;;5032615;28;20057;-43
2022/11/28 07:58:37;;;;;;;10.93;6.05;;;10.10;56.60;;;;;;5032632;28;20063;-43
2022/11/28 08:01:09;;;;;;;8.55;5.85;;;10.00;56.60;;;;;;5028825;28;20045;-44
2022/11/28 08:03:36;;;;;;;8.02;5.57;;;10.00;56.60;;;;;;5031856;28;20413;-48
2022/11/28 08:06:05;;;;;;;30.23;15.25;;;10.00;56.70;;;;;;5025148;28;20603;-48
2022/11/28 08:09:33;;;;;;;;;;;;;;;;;;;;;
2022/11/28 08:15:40;;;;;;;9.27;5.82;;;10.10;56.80;;;;;;4909788;28;20054;-45
2022/11/28 08:18:07;;;;;;;8.32;5.32;;;10.10;56.80;;;;;;5026549;28;20064;-45
2022/11/28 08:20:34;;;;;;;9.05;6.15;;;10.10;56.80;;;;;;5027171;28;20056;-42
2022/11/28 08:23:02;;;;;;;7.80;5.75;;;10.10;56.80;;;;;;5024913;28;20064;-46
2022/11/28 08:25:29;;;;;;;9.05;5.85;;;10.10;56.80;;;;;;5025669;28;20058;-47
2022/11/28 08:27:56;;;;;;;9.98;6.38;;;10.10;56.90;;;;;;5025552;28;20083;-47
2022/11/28 08:30:23;;;;;;;10.57;6.88;;;10.10;56.90;;;;;;5028827;28;20049;-48
2022/11/28 08:32:52;;;;;;;9.02;5.93;;;10.10;56.90;;;;;;5028462;28;20056;-48
2022/11/28 08:35:19;;;;;;;10.60;5.55;;;10.10;57.00;;;;;;5025505;28;20056;-44
2022/11/28 08:37:47;;;;;;;8.88;5.65;;;10.10;57.00;;;;;;5026119;28;20064;-47
2022/11/28 08:40:15;;;;;;;9.48;6.03;;;10.10;57.00;;;;;;5025290;28;20045;-49
2022/11/28 08:42:43;;;;;;;9.13;5.82;;;10.10;57.10;;;;;;5016633;28;20061;-45
2022/11/28 08:45:11;;;;;;;10.05;5.70;;;10.10;57.10;;;;;;5015217;28;20062;-47
2022/11/28 08:47:39;;;;;;;10.13;5.80;;;10.10;57.10;;;;;;5022916;28;20414;-43
2022/11/28 08:50:08;;;;;;;9.20;5.63;;;10.10;57.10;;;;;;5028722;28;20049;-43
2022/11/28 08:52:35;;;;;;;10.80;6.47;;;10.10;57.10;;;;;;5014451;28;20064;-44
2022/11/28 08:55:02;;;;;;;13.88;5.40;;;10.20;57.20;;;;;;5022315;28;20104;-42
2022/11/28 08:57:30;;;;;;;9.52;6.07;;;10.20;57.20;;;;;;5027863;28;20053;-44
2022/11/28 08:59:57;;;;;;;8.80;5.70;;;10.20;57.20;;;;;;5037230;28;20056;-45
2022/11/28 09:02:24;;;;;;;9.35;6.45;;;10.20;57.20;;;;;;5019398;28;20064;-48
2022/11/28 09:04:51;;;;;;;12.30;6.47;;;10.20;57.20;;;;;;5024414;28;20057;-46
2022/11/28 09:07:20;;;;;;;12.35;6.32;;;10.20;57.20;;;;;;5026705;28;20060;-46
2022/11/28 09:09:47;;;;;;;10.75;5.68;;;10.30;57.30;;;;;;5024332;28;20049;-42
2022/11/28 09:12:15;;;;;;;12.52;6.07;;;10.30;57.30;;;;;;5025342;28;20060;-44
2022/11/28 09:14:42;;;;;;;12.38;6.47;;;10.30;57.30;;;;;;5030122;28;20493;-43
2022/11/28 09:17:09;;;;;;;12.27;6.47;;;10.30;57.40;;;;;;5033389;28;20514;-42
2022/11/28 09:19:36;;;;;;;10.68;6.28;;;10.30;57.40;;;;;;5036146;28;20061;-43
2022/11/28 09:22:04;;;;;;;14.23;6.43;;;10.30;57.40;;;;;;5018826;28;20061;-44
2022/11/28 09:24:32;;;;;;;9.23;5.93;;;10.30;57.40;;;;;;5023674;28;20524;-42
2022/11/28 09:27:00;;;;;;;7.82;4.95;;;10.30;57.40;;;;;;5031831;28;20059;-47
2022/11/28 09:29:28;;;;;;;10.07;5.67;;;10.30;57.40;;;;;;5034152;28;20404;-45
2022/11/28 09:31:55;;;;;;;10.95;6.40;;;10.30;57.40;;;;;;5030039;28;20448;-43
2022/11/28 09:34:22;;;;;;;9.07;6.00;;;10.30;57.40;;;;;;5025053;28;20053;-50
2022/11/28 09:36:49;;;;;;;9.50;6.32;;;10.30;57.40;;;;;;5019257;28;21211;-47
2022/11/28 09:39:16;;;;;;;9.45;5.47;;;10.30;57.40;;;;;;5017645;28;20505;-43
2022/11/28 09:41:56;;;;;;;11.95;6.70;;;10.40;57.40;;;;;;5028162;28;20063;-46
2022/11/28 09:44:32;;;;;;;12.05;6.35;;;10.40;57.50;;;;;;5018202;28;20089;-47
2022/11/28 09:47:04;;;;;;;8.75;6.10;;;10.40;57.50;;;;;;5026935;28;20057;-44
2022/11/28 09:49:36;;;;;;;8.48;5.60;;;10.40;57.50;;;;;;5023968;28;20481;-42
2022/11/28 09:52:07;;;;;;;12.25;5.97;;;10.40;57.50;;;;;;5030768;28;20057;-47
2022/11/28 09:54:43;;;;;;;9.20;6.43;;;10.40;57.60;;;;;;5040077;28;20048;-49
2022/11/28 09:57:25;;;;;;;7.53;5.50;;;10.40;58.10;;;;;;5029700;28;20052;-44
2022/11/28 09:59:53;;;;;;;10.20;6.22;;;10.50;57.60;;;;;;5026060;28;20060;-46
2022/11/28 10:02:27;;;;;;;12.07;6.80;;;10.50;57.60;;;;;;5033235;28;20418;-44
2022/11/28 10:05:05;;;;;;;10.60;6.07;;;10.50;57.60;;;;;;5029881;28;20064;-44
2022/11/28 10:07:47;;;;;;;8.60;5.95;;;10.50;57.60;;;;;;5036107;28;20049;-46
2022/11/28 10:10:22;;;;;;;10.65;6.35;;;10.50;57.80;;;;;;5035898;28;20045;-48
2022/11/28 10:12:59;;;;;;;12.13;6.22;;;10.50;57.60;;;;;;5035797;28;20056;-49
2022/11/28 10:15:37;;;;;;;10.35;6.57;;;10.50;57.60;;;;;;5021266;28;20058;-47
2022/11/28 10:18:17;;;;;;;12.88;7.03;;;10.60;57.70;;;;;;5040504;28;20500;-46
2022/11/28 10:20:48;;;;;;;10.40;6.75;;;10.60;57.60;;;;;;5035640;28;20045;-47
2022/11/28 10:23:23;;;;;;;11.82;6.45;;;10.60;57.60;;;;;;5031564;28;20053;-43
2022/11/28 10:25:53;;;;;;;8.32;6.18;;;10.60;57.70;;;;;;5030633;28;20059;-48
2022/11/28 10:28:26;;;;;;;9.18;5.85;;;10.60;57.60;;;;;;5024365;28;20064;-43
2022/11/28 10:31:00;;;;;;;7.30;5.45;;;10.60;57.60;;;;;;5025188;28;20397;-47
2022/11/28 10:33:31;;;;;;;10.25;6.50;;;10.60;57.60;;;;;;5017315;28;20057;-46
2022/11/28 10:36:00;;;;;;;75.38;31.75;;;10.60;57.60;;;;;;5030743;28;20063;-43
2022/11/28 10:38:32;;;;;;;41.88;19.38;;;10.60;57.60;;;;;;5030929;28;20054;-44
2022/11/28 10:41:07;;;;;;;17.25;9.95;;;10.70;57.70;;;;;;5021022;28;20050;-45
2022/11/28 10:43:43;;;;;;;14.10;6.95;;;10.70;57.70;;;;;;5022615;28;20060;-47
2022/11/28 10:46:35;;;;;;;10.52;6.38;;;10.70;57.60;;;;;;5023973;28;20054;-44
2022/11/28 10:49:12;;;;;;;11.02;6.38;;;10.70;57.60;;;;;;5029674;28;20063;-45
2022/11/28 10:51:52;;;;;;;16.75;6.60;;;10.70;57.60;;;;;;5030928;28;20428;-44
2022/11/28 10:54:27;;;;;;;10.18;5.82;;;10.70;57.70;;;;;;5040268;28;20049;-47
2022/11/28 10:57:06;;;;;;;10.30;5.40;;;10.70;57.70;;;;;;5037769;28;20057;-44
2022/11/28 10:59:45;;;;;;;8.65;5.75;;;10.80;57.70;;;;;;5042270;28;20053;-47
2022/11/28 11:02:21;;;;;;;9.65;6.43;;;10.80;57.70;;;;;;5034395;28;20049;-45
2022/11/28 11:04:48;;;;;;;9.80;5.68;;;10.80;57.70;;;;;;5042735;28;20061;-45
2022/11/28 11:07:22;;;;;;;11.20;6.50;;;10.80;57.70;;;;;;5020583;28;20056;-47
2022/11/28 11:09:49;;;;;;;11.98;6.05;;;10.80;57.70;;;;;;5039695;28;20048;-42
2022/11/28 11:12:21;;;;;;;9.63;6.40;;;10.80;57.80;;;;;;5029594;28;20052;-44
2022/11/28 11:14:50;;;;;;;9.60;5.97;;;10.80;57.90;;;;;;5030683;28;20045;-44
2022/11/28 11:17:31;;;;;;;10.05;5.85;;;10.80;57.80;;;;;;5025161;28;20053;-49
2022/11/28 11:19:58;;;;;;;11.90;5.68;;;10.80;57.90;;;;;;5043482;28;20083;-43
2022/11/28 11:22:30;;;;;;;10.45;5.90;;;10.80;57.80;;;;;;5024548;28;20067;-45
2022/11/28 11:25:13;;;;;;;11.85;5.88;;;10.90;58.00;;;;;;5022893;28;20049;-45
2022/11/28 11:27:48;;;;;;;10.82;5.95;;;10.90;58.00;;;;;;5027716;28;20060;-47
2022/11/28 11:30:24;;;;;;;12.43;5.82;;;10.90;58.00;;;;;;5029011;28;20056;-46
2022/11/28 11:32:51;;;;;;;10.02;6.20;;;10.90;58.10;;;;;;5029213;28;20538;-48
2022/11/28 11:35:23;;;;;;;13.32;6.00;;;10.90;58.00;;;;;;5021141;28;20382;-46
2022/11/28 11:37:51;;;;;;;9.98;6.53;;;10.90;58.10;;;;;;5023114;28;20063;-42
2022/11/28 11:40:24;;;;;;;93.93;34.67;;;10.90;58.10;;;;;;5026190;28;20064;-43
2022/11/28 11:42:54;;;;;;;34.37;16.07;;;10.90;58.20;;;;;;5028958;28;20052;-46
2022/11/28 11:45:29;;;;;;;13.25;8.55;;;11.00;58.20;;;;;;5033799;28;20053;-47
2022/11/28 11:47:57;;;;;;;9.90;6.70;;;11.00;58.20;;;;;;5022023;28;20148;-45
2022/11/28 11:50:26;;;;;;;8.75;5.90;;;11.00;58.30;;;;;;5033828;28;20198;-45
2022/11/28 11:53:11;;;;;;;11.13;6.68;;;11.00;58.30;;;;;;5027021;28;20404;-44
2022/11/28 11:55:46;;;;;;;10.07;5.45;;;11.00;58.40;;;;;;5027964;28;21099;-46
2022/11/28 11:58:17;;;;;;;10.25;5.80;;;11.10;58.30;;;;;;5022770;28;20064;-43
2022/11/28 12:00:46;;;;;;;10.85;6.28;;;11.10;58.30;;;;;;5034451;28;20057;-48
2022/11/28 12:03:23;;;;;;;9.93;6.03;;;11.10;58.40;;;;;;5018593;28;20425;-43
2022/11/28 12:05:54;;;;;;;11.82;6.10;;;11.10;58.40;;;;;;5014128;28;20511;-47
2022/11/28 12:08:30;;;;;;;8.70;5.32;;;11.10;58.40;;;;;;5002604;28;20057;-45
2022/11/28 12:11:10;;;;;;;9.70;5.63;;;11.20;58.50;;;;;;5034005;28;20600;-47
2022/11/28 12:13:37;;;;;;;9.10;5.25;;;11.20;58.50;;;;;;5040324;28;20413;-44
2022/11/28 12:16:17;;;;;;;9.43;5.47;;;11.20;58.40;;;;;;5027114;28;20057;-49
2022/11/28 12:18:53;;;;;;;9.93;5.75;;;11.20;58.60;;;;;;5022038;28;20068;-49
2022/11/28 12:21:29;;;;;;;8.82;5.22;;;11.20;58.60;;;;;;5029680;28;20502;-43
2022/11/28 12:24:08;;;;;;;10.35;6.45;;;11.30;58.70;;;;;;5024083;28;20080;-45
2022/11/28 12:26:42;;;;;;;10.63;5.60;;;11.30;58.80;;;;;;5023219;28;20059;-43
2022/11/28 12:29:25;;;;;;;15.88;8.32;;;11.30;59.30;;;;;;5014760;28;20501;-47
2022/11/28 12:32:09;;;;;;;9.27;5.97;;;11.30;58.80;;;;;;5017669;28;20397;-49
2022/11/28 12:34:46;;;;;;;16.67;6.90;;;11.30;58.80;;;;;;5021622;28;20053;-45
2022/11/28 12:37:28;;;;;;;9.25;6.05;;;11.40;59.00;;;;;;5018066;28;20057;-46
2022/11/28 12:40:02;;;;;;;11.38;5.97;;;11.40;59.00;;;;;;5013503;28;20060;-46
2022/11/28 12:42:43;;;;;;;8.52;5.18;;;11.40;58.90;;;;;;5036915;28;20056;-50
2022/11/28 12:45:33;;;;;;;9.63;5.55;;;11.40;58.90;;;;;;5040392;28;20049;-45
2022/11/28 12:48:12;;;;;;;7.95;5.90;;;11.40;59.00;;;;;;5029081;28;20417;-47
2022/11/28 12:50:42;;;;;;;8.63;5.70;;;11.40;58.90;;;;;;5036919;28;20053;-47
2022/11/28 12:53:28;;;;;;;7.72;5.32;;;11.50;58.90;;;;;;5039855;28;20053;-47
2022/11/28 12:56:06;;;;;;;7.82;5.35;;;11.50;59.00;;;;;;5041937;28;20144;-46
2022/11/28 12:58:38;;;;;;;9.80;5.55;;;11.50;58.90;;;;;;5039865;28;20525;-47
2022/11/28 13:01:22;;;;;;;9.73;5.78;;;11.50;58.90;;;;;;5039112;28;20499;-45
2022/11/28 13:04:00;;;;;;;11.07;5.53;;;11.50;59.00;;;;;;5041442;28;20053;-48
2022/11/28 13:06:36;;;;;;;8.45;5.10;;;11.50;58.90;;;;;;5030179;28;20057;-43
2022/11/28 13:09:21;;;;;;;8.93;5.82;;;11.60;58.90;;;;;;5020898;28;20053;-47